sensor_id;sensor_type;location;lat;lon;timestamp;P1;durP1;ratioP1;P2;durP2;ratioP2
912;SDS011;443;51.448;7.028;2023-04-07T00:02:02;8.27;;;6.50;;
912;SDS011;443;51.448;7.028;2023-04-07T00:04:28;7.57;;;5.83;;
912;SDS011;443;51.448;7.028;2023-04-07T00:06:55;8.70;;;7.13;;
912;SDS011;443;51.448;7.028;2023-04-07T00:09:23;8.37;;;5.60;;
912;SDS011;443;51.448;7.028;2023-04-07T00:11:50;8.80;;;6.67;;
912;SDS011;443;51.448;7.028;2023-04-07T00:14:17;7.63;;;6.50;;
912;SDS011;443;51.448;7.028;2023-04-07T00:16:43;9.07;;;7.70;;
912;SDS011;443;51.448;7.028;2023-04-07T00:19:10;9.20;;;6.20;;
912;SDS011;443;51.448;7.028;2023-04-07T00:21:37;7.73;;;6.70;;
912;SDS011;443;51.448;7.028;2023-04-07T00:24:04;7.60;;;6.70;;
912;SDS011;443;51.448;7.028;2023-04-07T00:26:32;8.57;;;7.23;;
912;SDS011;443;51.448;7.028;2023-04-07T00:28:59;9.40;;;7.17;;
912;SDS011;443;51.448;7.028;2023-04-07T00:31:25;8.77;;;7.07;;
912;SDS011;443;51.448;7.028;2023-04-07T00:33:52;10.80;;;8.00;;
912;SDS011;443;51.448;7.028;2023-04-07T00:36:19;8.63;;;7.77;;
912;SDS011;443;51.448;7.028;2023-04-07T00:38:46;8.93;;;8.03;;
912;SDS011;443;51.448;7.028;2023-04-07T00:41:13;12.80;;;9.27;;
912;SDS011;443;51.448;7.028;2023-04-07T00:43:41;11.13;;;8.40;;
912;SDS011;443;51.448;7.028;2023-04-07T00:46:09;11.60;;;8.27;;
912;SDS011;443;51.448;7.028;2023-04-07T00:48:36;11.40;;;9.30;;
912;SDS011;443;51.448;7.028;2023-04-07T00:51:03;8.00;;;6.90;;
912;SDS011;443;51.448;7.028;2023-04-07T00:53:31;10.50;;;8.20;;
912;SDS011;443;51.448;7.028;2023-04-07T00:55:58;9.03;;;7.70;;
912;SDS011;443;51.448;7.028;2023-04-07T00:58:25;10.20;;;7.67;;
912;SDS011;443;51.448;7.028;2023-04-07T01:00:54;10.43;;;7.30;;
912;SDS011;443;51.448;7.028;2023-04-07T01:03:29;9.90;;;7.90;;
912;SDS011;443;51.448;7.028;2023-04-07T01:06:01;8.73;;;7.83;;
912;SDS011;443;51.448;7.028;2023-04-07T01:08:31;9.63;;;6.73;;
912;SDS011;443;51.448;7.028;2023-04-07T01:11:05;10.03;;;7.60;;
912;SDS011;443;51.448;7.028;2023-04-07T01:13:36;11.10;;;8.57;;
912;SDS011;443;51.448;7.028;2023-04-07T01:16:10;11.90;;;7.73;;
912;SDS011;443;51.448;7.028;2023-04-07T01:18:38;12.20;;;9.43;;
912;SDS011;443;51.448;7.028;2023-04-07T01:21:06;11.27;;;9.13;;
912;SDS011;443;51.448;7.028;2023-04-07T01:23:44;13.83;;;9.50;;
912;SDS011;443;51.448;7.028;2023-04-07T01:26:23;9.80;;;8.17;;
912;SDS011;443;51.448;7.028;2023-04-07T01:32:01;11.50;;;8.27;;
912;SDS011;443;51.448;7.028;2023-04-07T01:34:30;9.87;;;8.50;;
912;SDS011;443;51.448;7.028;2023-04-07T01:37:00;14.27;;;10.43;;
912;SDS011;443;51.448;7.028;2023-04-07T01:39:27;11.40;;;8.97;;
912;SDS011;443;51.448;7.028;2023-04-07T01:41:55;12.10;;;9.13;;
912;SDS011;443;51.448;7.028;2023-04-07T01:44:23;15.30;;;10.00;;
912;SDS011;443;51.448;7.028;2023-04-07T01:46:52;11.50;;;8.80;;
912;SDS011;443;51.448;7.028;2023-04-07T01:49:20;12.17;;;10.00;;
912;SDS011;443;51.448;7.028;2023-04-07T01:51:48;13.07;;;11.00;;
912;SDS011;443;51.448;7.028;2023-04-07T01:54:16;12.03;;;9.23;;
912;SDS011;443;51.448;7.028;2023-04-07T01:56:44;13.27;;;9.17;;
912;SDS011;443;51.448;7.028;2023-04-07T01:59:11;10.70;;;9.23;;
912;SDS011;443;51.448;7.028;2023-04-07T02:01:37;13.90;;;10.33;;
912;SDS011;443;51.448;7.028;2023-04-07T02:04:07;12.37;;;9.63;;
912;SDS011;443;51.448;7.028;2023-04-07T02:06:38;11.97;;;8.77;;
912;SDS011;443;51.448;7.028;2023-04-07T02:09:09;15.10;;;10.53;;
912;SDS011;443;51.448;7.028;2023-04-07T02:11:38;11.27;;;10.10;;
912;SDS011;443;51.448;7.028;2023-04-07T02:14:07;14.27;;;9.80;;
912;SDS011;443;51.448;7.028;2023-04-07T02:16:35;14.40;;;10.10;;
912;SDS011;443;51.448;7.028;2023-04-07T02:19:02;12.20;;;9.80;;
912;SDS011;443;51.448;7.028;2023-04-07T02:21:31;13.67;;;9.43;;
912;SDS011;443;51.448;7.028;2023-04-07T02:23:59;13.43;;;10.30;;
912;SDS011;443;51.448;7.028;2023-04-07T02:26:27;14.27;;;10.30;;
912;SDS011;443;51.448;7.028;2023-04-07T02:28:57;14.13;;;9.33;;
912;SDS011;443;51.448;7.028;2023-04-07T02:31:24;13.83;;;10.50;;
912;SDS011;443;51.448;7.028;2023-04-07T02:33:50;10.93;;;9.03;;
912;SDS011;443;51.448;7.028;2023-04-07T02:36:17;15.43;;;11.13;;
912;SDS011;443;51.448;7.028;2023-04-07T02:38:45;15.73;;;11.40;;
912;SDS011;443;51.448;7.028;2023-04-07T02:41:12;11.87;;;9.77;;
912;SDS011;443;51.448;7.028;2023-04-07T02:43:39;15.23;;;11.07;;
912;SDS011;443;51.448;7.028;2023-04-07T02:46:05;16.03;;;11.20;;
912;SDS011;443;51.448;7.028;2023-04-07T02:48:32;16.30;;;12.03;;
912;SDS011;443;51.448;7.028;2023-04-07T02:50:59;15.90;;;12.03;;
912;SDS011;443;51.448;7.028;2023-04-07T02:53:26;18.80;;;11.03;;
912;SDS011;443;51.448;7.028;2023-04-07T02:55:54;20.83;;;12.90;;
912;SDS011;443;51.448;7.028;2023-04-07T02:58:21;17.13;;;12.50;;
912;SDS011;443;51.448;7.028;2023-04-07T03:00:47;21.73;;;13.47;;
912;SDS011;443;51.448;7.028;2023-04-07T03:03:14;19.27;;;12.00;;
912;SDS011;443;51.448;7.028;2023-04-07T03:05:41;19.00;;;11.60;;
912;SDS011;443;51.448;7.028;2023-04-07T03:08:08;23.53;;;15.40;;
912;SDS011;443;51.448;7.028;2023-04-07T03:10:34;18.60;;;12.23;;
912;SDS011;443;51.448;7.028;2023-04-07T03:13:02;18.50;;;11.90;;
912;SDS011;443;51.448;7.028;2023-04-07T03:15:30;20.90;;;13.70;;
912;SDS011;443;51.448;7.028;2023-04-07T03:17:56;21.87;;;14.47;;
912;SDS011;443;51.448;7.028;2023-04-07T03:20:23;20.33;;;12.13;;
912;SDS011;443;51.448;7.028;2023-04-07T03:22:50;22.43;;;13.00;;
912;SDS011;443;51.448;7.028;2023-04-07T03:25:17;24.80;;;15.90;;
912;SDS011;443;51.448;7.028;2023-04-07T03:27:44;19.93;;;15.43;;
912;SDS011;443;51.448;7.028;2023-04-07T03:30:12;21.80;;;13.47;;
912;SDS011;443;51.448;7.028;2023-04-07T03:32:39;17.00;;;11.27;;
912;SDS011;443;51.448;7.028;2023-04-07T03:35:06;20.93;;;14.03;;
912;SDS011;443;51.448;7.028;2023-04-07T03:37:33;21.90;;;15.07;;
912;SDS011;443;51.448;7.028;2023-04-07T03:40:00;17.93;;;12.20;;
912;SDS011;443;51.448;7.028;2023-04-07T03:42:27;19.60;;;12.73;;
912;SDS011;443;51.448;7.028;2023-04-07T03:44:54;20.53;;;13.80;;
912;SDS011;443;51.448;7.028;2023-04-07T03:47:22;20.07;;;11.10;;
912;SDS011;443;51.448;7.028;2023-04-07T03:49:49;17.60;;;12.30;;
912;SDS011;443;51.448;7.028;2023-04-07T03:52:16;21.00;;;12.00;;
912;SDS011;443;51.448;7.028;2023-04-07T03:54:42;17.03;;;11.20;;
912;SDS011;443;51.448;7.028;2023-04-07T03:57:09;20.77;;;12.13;;
912;SDS011;443;51.448;7.028;2023-04-07T03:59:36;19.73;;;11.83;;
912;SDS011;443;51.448;7.028;2023-04-07T04:02:03;17.50;;;9.50;;
912;SDS011;443;51.448;7.028;2023-04-07T04:04:31;17.13;;;11.33;;
912;SDS011;443;51.448;7.028;2023-04-07T04:06:58;17.07;;;10.37;;
912;SDS011;443;51.448;7.028;2023-04-07T04:09:25;17.43;;;10.73;;
912;SDS011;443;51.448;7.028;2023-04-07T04:11:52;19.63;;;10.90;;
912;SDS011;443;51.448;7.028;2023-04-07T04:14:18;12.50;;;10.13;;
912;SDS011;443;51.448;7.028;2023-04-07T04:16:45;14.37;;;10.37;;
912;SDS011;443;51.448;7.028;2023-04-07T04:19:12;16.47;;;9.73;;
912;SDS011;443;51.448;7.028;2023-04-07T04:21:40;13.93;;;10.10;;
912;SDS011;443;51.448;7.028;2023-04-07T04:24:07;13.90;;;8.50;;
912;SDS011;443;51.448;7.028;2023-04-07T04:26:33;17.77;;;10.13;;
912;SDS011;443;51.448;7.028;2023-04-07T04:29:00;14.90;;;10.20;;
912;SDS011;443;51.448;7.028;2023-04-07T04:31:28;12.50;;;9.63;;
912;SDS011;443;51.448;7.028;2023-04-07T04:33:54;16.60;;;11.37;;
912;SDS011;443;51.448;7.028;2023-04-07T04:36:21;16.13;;;10.33;;
912;SDS011;443;51.448;7.028;2023-04-07T04:38:49;16.33;;;9.90;;
912;SDS011;443;51.448;7.028;2023-04-07T04:41:16;16.30;;;9.50;;
912;SDS011;443;51.448;7.028;2023-04-07T04:43:43;14.27;;;9.43;;
912;SDS011;443;51.448;7.028;2023-04-07T04:46:10;15.60;;;9.40;;
912;SDS011;443;51.448;7.028;2023-04-07T04:48:36;14.30;;;9.60;;
912;SDS011;443;51.448;7.028;2023-04-07T04:51:03;14.10;;;10.73;;
912;SDS011;443;51.448;7.028;2023-04-07T04:53:30;16.97;;;9.83;;
912;SDS011;443;51.448;7.028;2023-04-07T04:55:58;14.33;;;9.97;;
912;SDS011;443;51.448;7.028;2023-04-07T04:58:25;15.47;;;10.30;;
912;SDS011;443;51.448;7.028;2023-04-07T05:00:52;15.70;;;10.83;;
912;SDS011;443;51.448;7.028;2023-04-07T05:03:22;13.20;;;9.23;;
912;SDS011;443;51.448;7.028;2023-04-07T05:05:50;15.53;;;9.87;;
912;SDS011;443;51.448;7.028;2023-04-07T05:08:16;15.97;;;10.00;;
912;SDS011;443;51.448;7.028;2023-04-07T05:10:43;15.97;;;9.90;;
912;SDS011;443;51.448;7.028;2023-04-07T05:13:12;17.20;;;10.57;;
912;SDS011;443;51.448;7.028;2023-04-07T05:15:39;16.00;;;10.23;;
912;SDS011;443;51.448;7.028;2023-04-07T05:18:06;13.23;;;8.80;;
912;SDS011;443;51.448;7.028;2023-04-07T05:20:33;16.47;;;10.47;;
912;SDS011;443;51.448;7.028;2023-04-07T05:23:00;16.27;;;9.10;;
912;SDS011;443;51.448;7.028;2023-04-07T05:25:27;14.27;;;8.90;;
912;SDS011;443;51.448;7.028;2023-04-07T05:27:53;14.97;;;9.00;;
912;SDS011;443;51.448;7.028;2023-04-07T05:30:21;15.73;;;8.57;;
912;SDS011;443;51.448;7.028;2023-04-07T05:32:48;18.83;;;10.53;;
912;SDS011;443;51.448;7.028;2023-04-07T05:35:15;14.83;;;9.53;;
912;SDS011;443;51.448;7.028;2023-04-07T05:37:42;14.80;;;8.10;;
912;SDS011;443;51.448;7.028;2023-04-07T05:40:09;13.80;;;7.50;;
912;SDS011;443;51.448;7.028;2023-04-07T05:42:37;10.23;;;6.80;;
912;SDS011;443;51.448;7.028;2023-04-07T05:45:04;10.80;;;7.70;;
912;SDS011;443;51.448;7.028;2023-04-07T05:47:33;9.83;;;6.80;;
912;SDS011;443;51.448;7.028;2023-04-07T05:49:59;10.27;;;6.90;;
912;SDS011;443;51.448;7.028;2023-04-07T05:52:26;13.43;;;8.10;;
912;SDS011;443;51.448;7.028;2023-04-07T05:54:53;12.57;;;7.00;;
912;SDS011;443;51.448;7.028;2023-04-07T05:57:20;7.93;;;5.30;;
912;SDS011;443;51.448;7.028;2023-04-07T05:59:47;15.63;;;7.87;;
912;SDS011;443;51.448;7.028;2023-04-07T06:02:14;11.90;;;7.60;;
912;SDS011;443;51.448;7.028;2023-04-07T06:04:42;12.47;;;7.30;;
912;SDS011;443;51.448;7.028;2023-04-07T06:07:09;10.70;;;6.20;;
912;SDS011;443;51.448;7.028;2023-04-07T06:09:36;8.30;;;5.73;;
912;SDS011;443;51.448;7.028;2023-04-07T06:12:03;10.67;;;6.27;;
912;SDS011;443;51.448;7.028;2023-04-07T06:14:30;12.90;;;6.27;;
912;SDS011;443;51.448;7.028;2023-04-07T06:16:57;8.63;;;6.00;;
912;SDS011;443;51.448;7.028;2023-04-07T06:19:24;12.80;;;6.93;;
912;SDS011;443;51.448;7.028;2023-04-07T06:21:53;10.77;;;6.33;;
912;SDS011;443;51.448;7.028;2023-04-07T06:24:20;7.87;;;6.10;;
912;SDS011;443;51.448;7.028;2023-04-07T06:26:49;10.23;;;6.43;;
912;SDS011;443;51.448;7.028;2023-04-07T06:29:17;9.00;;;5.50;;
912;SDS011;443;51.448;7.028;2023-04-07T06:31:43;12.70;;;5.90;;
912;SDS011;443;51.448;7.028;2023-04-07T06:34:10;12.23;;;5.43;;
912;SDS011;443;51.448;7.028;2023-04-07T06:36:37;6.93;;;5.03;;
912;SDS011;443;51.448;7.028;2023-04-07T06:39:05;10.37;;;5.83;;
912;SDS011;443;51.448;7.028;2023-04-07T06:41:32;7.90;;;5.30;;
912;SDS011;443;51.448;7.028;2023-04-07T06:43:59;11.50;;;5.63;;
912;SDS011;443;51.448;7.028;2023-04-07T06:46:26;9.90;;;6.37;;
912;SDS011;443;51.448;7.028;2023-04-07T06:48:52;7.13;;;5.30;;
912;SDS011;443;51.448;7.028;2023-04-07T06:51:19;4.60;;;3.87;;
912;SDS011;443;51.448;7.028;2023-04-07T06:53:46;10.60;;;6.13;;
912;SDS011;443;51.448;7.028;2023-04-07T06:56:14;8.63;;;5.40;;
912;SDS011;443;51.448;7.028;2023-04-07T06:58:41;8.30;;;5.33;;
912;SDS011;443;51.448;7.028;2023-04-07T07:01:08;7.17;;;4.20;;
912;SDS011;443;51.448;7.028;2023-04-07T07:03:35;10.07;;;6.40;;
912;SDS011;443;51.448;7.028;2023-04-07T07:06:01;9.10;;;4.63;;
912;SDS011;443;51.448;7.028;2023-04-07T07:08:28;6.77;;;4.37;;
912;SDS011;443;51.448;7.028;2023-04-07T07:10:55;6.77;;;5.10;;
912;SDS011;443;51.448;7.028;2023-04-07T07:13:24;15.90;;;5.07;;
912;SDS011;443;51.448;7.028;2023-04-07T07:15:52;9.40;;;6.23;;
912;SDS011;443;51.448;7.028;2023-04-07T07:18:19;7.70;;;4.70;;
912;SDS011;443;51.448;7.028;2023-04-07T07:20:46;8.93;;;4.97;;
912;SDS011;443;51.448;7.028;2023-04-07T07:23:13;6.07;;;3.97;;
912;SDS011;443;51.448;7.028;2023-04-07T07:25:40;11.30;;;6.77;;
912;SDS011;443;51.448;7.028;2023-04-07T07:28:06;8.10;;;4.23;;
912;SDS011;443;51.448;7.028;2023-04-07T07:30:35;5.40;;;4.47;;
912;SDS011;443;51.448;7.028;2023-04-07T07:33:04;9.00;;;5.07;;
912;SDS011;443;51.448;7.028;2023-04-07T07:35:30;7.10;;;5.10;;
912;SDS011;443;51.448;7.028;2023-04-07T07:37:57;6.33;;;4.83;;
912;SDS011;443;51.448;7.028;2023-04-07T07:40:24;7.80;;;5.03;;
912;SDS011;443;51.448;7.028;2023-04-07T07:42:51;6.93;;;4.80;;
912;SDS011;443;51.448;7.028;2023-04-07T07:45:17;5.30;;;4.23;;
912;SDS011;443;51.448;7.028;2023-04-07T07:47:45;7.27;;;4.43;;
912;SDS011;443;51.448;7.028;2023-04-07T07:50:12;7.83;;;5.27;;
912;SDS011;443;51.448;7.028;2023-04-07T07:52:39;8.90;;;5.03;;
912;SDS011;443;51.448;7.028;2023-04-07T07:55:07;8.13;;;5.43;;
912;SDS011;443;51.448;7.028;2023-04-07T07:57:34;8.67;;;4.03;;
912;SDS011;443;51.448;7.028;2023-04-07T08:00:01;6.87;;;4.40;;
912;SDS011;443;51.448;7.028;2023-04-07T08:02:28;6.57;;;4.60;;
912;SDS011;443;51.448;7.028;2023-04-07T08:04:59;9.20;;;5.37;;
912;SDS011;443;51.448;7.028;2023-04-07T08:07:25;10.13;;;6.03;;
912;SDS011;443;51.448;7.028;2023-04-07T08:09:52;7.47;;;4.90;;
912;SDS011;443;51.448;7.028;2023-04-07T08:12:20;7.30;;;5.00;;
912;SDS011;443;51.448;7.028;2023-04-07T08:14:47;11.17;;;6.37;;
912;SDS011;443;51.448;7.028;2023-04-07T08:17:15;15.90;;;7.60;;
912;SDS011;443;51.448;7.028;2023-04-07T08:19:41;12.53;;;7.20;;
912;SDS011;443;51.448;7.028;2023-04-07T08:22:09;14.67;;;8.17;;
912;SDS011;443;51.448;7.028;2023-04-07T08:24:36;12.10;;;6.80;;
912;SDS011;443;51.448;7.028;2023-04-07T08:27:03;12.93;;;8.17;;
912;SDS011;443;51.448;7.028;2023-04-07T08:29:30;13.43;;;7.60;;
912;SDS011;443;51.448;7.028;2023-04-07T08:31:57;11.97;;;6.07;;
912;SDS011;443;51.448;7.028;2023-04-07T08:34:24;8.87;;;5.10;;
912;SDS011;443;51.448;7.028;2023-04-07T08:36:51;8.30;;;4.83;;
912;SDS011;443;51.448;7.028;2023-04-07T08:39:19;7.30;;;5.03;;
912;SDS011;443;51.448;7.028;2023-04-07T08:41:46;9.73;;;5.50;;
912;SDS011;443;51.448;7.028;2023-04-07T08:44:15;7.03;;;4.93;;
912;SDS011;443;51.448;7.028;2023-04-07T08:46:42;8.23;;;5.03;;
912;SDS011;443;51.448;7.028;2023-04-07T08:49:11;9.67;;;4.97;;
912;SDS011;443;51.448;7.028;2023-04-07T08:51:42;10.60;;;6.20;;
912;SDS011;443;51.448;7.028;2023-04-07T08:54:11;12.33;;;6.43;;
912;SDS011;443;51.448;7.028;2023-04-07T08:56:41;9.00;;;5.57;;
912;SDS011;443;51.448;7.028;2023-04-07T08:59:09;6.57;;;4.70;;
912;SDS011;443;51.448;7.028;2023-04-07T09:01:37;12.50;;;5.30;;
912;SDS011;443;51.448;7.028;2023-04-07T09:04:05;9.80;;;5.80;;
912;SDS011;443;51.448;7.028;2023-04-07T09:06:32;8.53;;;5.10;;
912;SDS011;443;51.448;7.028;2023-04-07T09:09:00;10.33;;;5.10;;
912;SDS011;443;51.448;7.028;2023-04-07T09:11:27;10.00;;;5.90;;
912;SDS011;443;51.448;7.028;2023-04-07T09:13:56;8.23;;;4.87;;
912;SDS011;443;51.448;7.028;2023-04-07T09:16:26;6.57;;;4.40;;
912;SDS011;443;51.448;7.028;2023-04-07T09:18:55;9.37;;;5.30;;
912;SDS011;443;51.448;7.028;2023-04-07T09:21:21;8.60;;;4.43;;
912;SDS011;443;51.448;7.028;2023-04-07T09:23:48;11.60;;;4.80;;
912;SDS011;443;51.448;7.028;2023-04-07T09:26:19;9.77;;;6.07;;
912;SDS011;443;51.448;7.028;2023-04-07T09:28:48;8.33;;;6.10;;
912;SDS011;443;51.448;7.028;2023-04-07T09:31:18;11.60;;;6.67;;
912;SDS011;443;51.448;7.028;2023-04-07T09:33:46;11.23;;;5.90;;
912;SDS011;443;51.448;7.028;2023-04-07T09:36:13;11.27;;;5.90;;
912;SDS011;443;51.448;7.028;2023-04-07T09:38:40;8.33;;;5.83;;
912;SDS011;443;51.448;7.028;2023-04-07T09:41:08;10.40;;;6.93;;
912;SDS011;443;51.448;7.028;2023-04-07T09:43:37;10.97;;;5.83;;
912;SDS011;443;51.448;7.028;2023-04-07T09:46:06;6.47;;;4.63;;
912;SDS011;443;51.448;7.028;2023-04-07T09:48:36;9.10;;;4.70;;
912;SDS011;443;51.448;7.028;2023-04-07T09:51:04;7.07;;;4.90;;
912;SDS011;443;51.448;7.028;2023-04-07T09:53:43;9.30;;;5.73;;
912;SDS011;443;51.448;7.028;2023-04-07T09:56:11;10.57;;;5.87;;
912;SDS011;443;51.448;7.028;2023-04-07T09:58:40;6.33;;;4.27;;
912;SDS011;443;51.448;7.028;2023-04-07T10:01:09;7.80;;;5.50;;
912;SDS011;443;51.448;7.028;2023-04-07T10:03:38;8.87;;;5.47;;
912;SDS011;443;51.448;7.028;2023-04-07T10:06:05;8.83;;;4.73;;
912;SDS011;443;51.448;7.028;2023-04-07T10:08:32;9.40;;;5.10;;
912;SDS011;443;51.448;7.028;2023-04-07T10:11:00;7.47;;;4.73;;
912;SDS011;443;51.448;7.028;2023-04-07T10:13:28;5.70;;;4.70;;
912;SDS011;443;51.448;7.028;2023-04-07T10:15:55;7.27;;;5.20;;
912;SDS011;443;51.448;7.028;2023-04-07T10:18:24;6.73;;;4.63;;
912;SDS011;443;51.448;7.028;2023-04-07T10:20:55;7.30;;;5.43;;
912;SDS011;443;51.448;7.028;2023-04-07T10:23:24;7.40;;;4.60;;
912;SDS011;443;51.448;7.028;2023-04-07T10:25:53;10.07;;;5.50;;
912;SDS011;443;51.448;7.028;2023-04-07T10:28:23;5.97;;;4.33;;
912;SDS011;443;51.448;7.028;2023-04-07T10:30:52;9.67;;;6.20;;
912;SDS011;443;51.448;7.028;2023-04-07T10:36:12;10.00;;;6.03;;
912;SDS011;443;51.448;7.028;2023-04-07T10:38:39;7.30;;;5.90;;
912;SDS011;443;51.448;7.028;2023-04-07T10:43:59;10.00;;;6.40;;
912;SDS011;443;51.448;7.028;2023-04-07T10:46:35;10.93;;;6.90;;
912;SDS011;443;51.448;7.028;2023-04-07T10:49:28;9.53;;;7.03;;
912;SDS011;443;51.448;7.028;2023-04-07T10:54:56;10.67;;;6.33;;
912;SDS011;443;51.448;7.028;2023-04-07T10:58:12;11.07;;;6.33;;
912;SDS011;443;51.448;7.028;2023-04-07T11:00:40;8.90;;;6.63;;
912;SDS011;443;51.448;7.028;2023-04-07T11:03:08;14.20;;;6.93;;
912;SDS011;443;51.448;7.028;2023-04-07T11:05:37;9.50;;;6.03;;
912;SDS011;443;51.448;7.028;2023-04-07T11:08:06;10.10;;;5.90;;
912;SDS011;443;51.448;7.028;2023-04-07T11:10:32;13.90;;;6.40;;
912;SDS011;443;51.448;7.028;2023-04-07T11:13:00;8.47;;;6.10;;
912;SDS011;443;51.448;7.028;2023-04-07T11:15:29;6.53;;;4.60;;
912;SDS011;443;51.448;7.028;2023-04-07T11:18:12;8.50;;;6.07;;
912;SDS011;443;51.448;7.028;2023-04-07T11:20:41;11.50;;;6.60;;
912;SDS011;443;51.448;7.028;2023-04-07T11:23:14;15.57;;;6.73;;
912;SDS011;443;51.448;7.028;2023-04-07T11:25:42;10.23;;;6.07;;
912;SDS011;443;51.448;7.028;2023-04-07T11:28:11;12.13;;;6.20;;
912;SDS011;443;51.448;7.028;2023-04-07T11:30:42;10.70;;;6.60;;
912;SDS011;443;51.448;7.028;2023-04-07T11:33:13;11.87;;;6.30;;
912;SDS011;443;51.448;7.028;2023-04-07T11:35:51;9.90;;;6.93;;
912;SDS011;443;51.448;7.028;2023-04-07T11:38:22;8.80;;;5.20;;
912;SDS011;443;51.448;7.028;2023-04-07T11:40:49;8.60;;;6.33;;
912;SDS011;443;51.448;7.028;2023-04-07T11:43:20;7.40;;;4.57;;
912;SDS011;443;51.448;7.028;2023-04-07T11:46:04;10.80;;;5.37;;
912;SDS011;443;51.448;7.028;2023-04-07T11:48:32;12.90;;;7.47;;
912;SDS011;443;51.448;7.028;2023-04-07T11:51:00;12.10;;;6.17;;
912;SDS011;443;51.448;7.028;2023-04-07T11:53:30;8.27;;;4.97;;
912;SDS011;443;51.448;7.028;2023-04-07T11:55:58;11.60;;;6.90;;
912;SDS011;443;51.448;7.028;2023-04-07T11:58:29;11.73;;;6.33;;
912;SDS011;443;51.448;7.028;2023-04-07T12:00:56;10.93;;;6.90;;
912;SDS011;443;51.448;7.028;2023-04-07T12:03:27;9.30;;;5.60;;
912;SDS011;443;51.448;7.028;2023-04-07T12:05:54;7.87;;;5.60;;
912;SDS011;443;51.448;7.028;2023-04-07T12:08:21;7.70;;;5.10;;
912;SDS011;443;51.448;7.028;2023-04-07T12:11:03;8.77;;;5.73;;
912;SDS011;443;51.448;7.028;2023-04-07T12:13:32;9.20;;;6.10;;
912;SDS011;443;51.448;7.028;2023-04-07T12:15:58;10.53;;;6.20;;
912;SDS011;443;51.448;7.028;2023-04-07T12:18:26;9.90;;;5.13;;
912;SDS011;443;51.448;7.028;2023-04-07T12:20:53;7.80;;;4.77;;
912;SDS011;443;51.448;7.028;2023-04-07T12:23:21;11.63;;;4.27;;
912;SDS011;443;51.448;7.028;2023-04-07T12:25:49;10.90;;;5.90;;
912;SDS011;443;51.448;7.028;2023-04-07T12:28:16;11.50;;;5.57;;
912;SDS011;443;51.448;7.028;2023-04-07T12:30:43;8.20;;;4.73;;
912;SDS011;443;51.448;7.028;2023-04-07T12:33:10;10.20;;;5.27;;
912;SDS011;443;51.448;7.028;2023-04-07T12:35:36;5.53;;;4.80;;
912;SDS011;443;51.448;7.028;2023-04-07T12:38:04;7.23;;;4.60;;
912;SDS011;443;51.448;7.028;2023-04-07T12:40:32;7.37;;;6.20;;
912;SDS011;443;51.448;7.028;2023-04-07T12:43:01;8.03;;;5.60;;
912;SDS011;443;51.448;7.028;2023-04-07T12:45:28;7.70;;;4.47;;
912;SDS011;443;51.448;7.028;2023-04-07T12:47:55;9.63;;;6.10;;
912;SDS011;443;51.448;7.028;2023-04-07T12:50:22;8.73;;;5.37;;
912;SDS011;443;51.448;7.028;2023-04-07T12:52:50;9.10;;;5.37;;
912;SDS011;443;51.448;7.028;2023-04-07T12:55:18;10.93;;;5.03;;
912;SDS011;443;51.448;7.028;2023-04-07T12:57:45;8.67;;;5.47;;
912;SDS011;443;51.448;7.028;2023-04-07T13:00:13;8.40;;;5.70;;
912;SDS011;443;51.448;7.028;2023-04-07T13:02:41;7.67;;;5.23;;
912;SDS011;443;51.448;7.028;2023-04-07T13:05:08;10.63;;;5.27;;
912;SDS011;443;51.448;7.028;2023-04-07T13:07:35;8.00;;;4.30;;
912;SDS011;443;51.448;7.028;2023-04-07T13:10:02;4.10;;;2.83;;
912;SDS011;443;51.448;7.028;2023-04-07T13:12:31;5.80;;;3.07;;
912;SDS011;443;51.448;7.028;2023-04-07T13:14:57;4.60;;;3.07;;
912;SDS011;443;51.448;7.028;2023-04-07T13:17:26;4.43;;;3.33;;
912;SDS011;443;51.448;7.028;2023-04-07T13:19:53;3.07;;;2.50;;
912;SDS011;443;51.448;7.028;2023-04-07T13:22:20;2.67;;;2.13;;
912;SDS011;443;51.448;7.028;2023-04-07T13:24:47;4.07;;;2.57;;
912;SDS011;443;51.448;7.028;2023-04-07T13:27:14;3.40;;;3.10;;
912;SDS011;443;51.448;7.028;2023-04-07T13:29:41;3.90;;;3.10;;
912;SDS011;443;51.448;7.028;2023-04-07T13:32:08;3.33;;;2.70;;
912;SDS011;443;51.448;7.028;2023-04-07T13:34:38;3.40;;;3.07;;
912;SDS011;443;51.448;7.028;2023-04-07T13:37:05;4.40;;;3.27;;
912;SDS011;443;51.448;7.028;2023-04-07T13:39:32;4.13;;;3.20;;
912;SDS011;443;51.448;7.028;2023-04-07T13:41:59;3.80;;;3.30;;
912;SDS011;443;51.448;7.028;2023-04-07T13:44:26;3.83;;;3.30;;
912;SDS011;443;51.448;7.028;2023-04-07T13:46:53;5.93;;;4.23;;
912;SDS011;443;51.448;7.028;2023-04-07T13:49:21;6.57;;;4.50;;
912;SDS011;443;51.448;7.028;2023-04-07T13:51:49;4.70;;;3.60;;
912;SDS011;443;51.448;7.028;2023-04-07T13:54:16;5.10;;;4.10;;
912;SDS011;443;51.448;7.028;2023-04-07T13:56:42;5.57;;;3.53;;
912;SDS011;443;51.448;7.028;2023-04-07T13:59:09;4.37;;;3.53;;
912;SDS011;443;51.448;7.028;2023-04-07T14:01:36;4.50;;;3.73;;
912;SDS011;443;51.448;7.028;2023-04-07T14:04:04;4.23;;;3.47;;
912;SDS011;443;51.448;7.028;2023-04-07T14:06:31;4.10;;;3.60;;
912;SDS011;443;51.448;7.028;2023-04-07T14:09:01;4.23;;;3.27;;
912;SDS011;443;51.448;7.028;2023-04-07T14:11:30;4.20;;;3.20;;
912;SDS011;443;51.448;7.028;2023-04-07T14:13:58;3.87;;;3.37;;
912;SDS011;443;51.448;7.028;2023-04-07T14:16:25;5.60;;;3.00;;
912;SDS011;443;51.448;7.028;2023-04-07T14:18:52;7.00;;;3.93;;
912;SDS011;443;51.448;7.028;2023-04-07T14:21:20;4.00;;;3.60;;
912;SDS011;443;51.448;7.028;2023-04-07T14:23:46;3.90;;;2.80;;
912;SDS011;443;51.448;7.028;2023-04-07T14:26:14;3.70;;;3.30;;
912;SDS011;443;51.448;7.028;2023-04-07T14:28:41;3.60;;;3.23;;
912;SDS011;443;51.448;7.028;2023-04-07T14:31:10;4.50;;;3.20;;
912;SDS011;443;51.448;7.028;2023-04-07T14:33:38;6.10;;;4.30;;
912;SDS011;443;51.448;7.028;2023-04-07T14:36:05;4.60;;;4.07;;
912;SDS011;443;51.448;7.028;2023-04-07T14:38:31;7.07;;;4.10;;
912;SDS011;443;51.448;7.028;2023-04-07T14:40:58;4.27;;;3.87;;
912;SDS011;443;51.448;7.028;2023-04-07T14:43:27;5.33;;;3.90;;
912;SDS011;443;51.448;7.028;2023-04-07T14:45:54;3.53;;;3.23;;
912;SDS011;443;51.448;7.028;2023-04-07T14:48:21;5.50;;;4.27;;
912;SDS011;443;51.448;7.028;2023-04-07T14:50:48;4.40;;;4.00;;
912;SDS011;443;51.448;7.028;2023-04-07T14:53:15;5.50;;;3.67;;
912;SDS011;443;51.448;7.028;2023-04-07T14:55:41;4.17;;;3.70;;
912;SDS011;443;51.448;7.028;2023-04-07T14:58:08;4.33;;;3.53;;
912;SDS011;443;51.448;7.028;2023-04-07T15:00:36;3.60;;;3.07;;
912;SDS011;443;51.448;7.028;2023-04-07T15:03:03;4.13;;;3.43;;
912;SDS011;443;51.448;7.028;2023-04-07T15:05:30;3.33;;;2.60;;
912;SDS011;443;51.448;7.028;2023-04-07T15:07:57;4.47;;;3.20;;
912;SDS011;443;51.448;7.028;2023-04-07T15:10:23;3.03;;;2.73;;
912;SDS011;443;51.448;7.028;2023-04-07T15:12:50;4.67;;;2.83;;
912;SDS011;443;51.448;7.028;2023-04-07T15:15:17;4.03;;;3.10;;
912;SDS011;443;51.448;7.028;2023-04-07T15:17:46;5.00;;;3.63;;
912;SDS011;443;51.448;7.028;2023-04-07T15:20:12;4.80;;;3.20;;
912;SDS011;443;51.448;7.028;2023-04-07T15:22:39;3.20;;;2.87;;
912;SDS011;443;51.448;7.028;2023-04-07T15:25:06;4.27;;;3.23;;
912;SDS011;443;51.448;7.028;2023-04-07T15:27:33;3.20;;;2.90;;
912;SDS011;443;51.448;7.028;2023-04-07T15:30:00;3.43;;;2.10;;
912;SDS011;443;51.448;7.028;2023-04-07T15:32:29;5.60;;;3.73;;
912;SDS011;443;51.448;7.028;2023-04-07T15:34:57;3.83;;;3.03;;
912;SDS011;443;51.448;7.028;2023-04-07T15:37:24;4.93;;;2.90;;
912;SDS011;443;51.448;7.028;2023-04-07T15:39:51;5.10;;;3.03;;
912;SDS011;443;51.448;7.028;2023-04-07T15:42:18;3.30;;;2.67;;
912;SDS011;443;51.448;7.028;2023-04-07T15:44:45;4.10;;;3.63;;
912;SDS011;443;51.448;7.028;2023-04-07T15:47:11;3.17;;;2.87;;
912;SDS011;443;51.448;7.028;2023-04-07T15:49:38;3.83;;;2.70;;
912;SDS011;443;51.448;7.028;2023-04-07T15:52:07;4.90;;;3.40;;